Time;durP1;ratioP1;P1;durP2;ratioP2;P2;SDS_P1;SDS_P2;PMS_P1;PMS_P2;Temp;Humidity;BMP_temperature;BMP_pressure;BME280_temperature;BME280_humidity;BME280_pressure;Samples;Min_cycle;Max_cycle;Signal;HPM_P1;HPM_P2
2022/04/28 00:00:13;;;;;;;14.07;6.68;;;2.80;90.30;;;;;;5033387;28;20041;-65
2022/04/28 00:02:39;;;;;;;9.80;6.47;;;2.80;90.60;;;;;;5044608;28;20033;-65
2022/04/28 00:05:07;;;;;;;17.48;7.00;;;2.80;90.50;;;;;;5046674;28;20366;-65
2022/04/28 00:07:33;;;;;;;15.82;6.70;;;2.70;90.50;;;;;;5046211;28;20049;-65
2022/04/28 00:09:59;;;;;;;17.02;6.90;;;2.60;90.50;;;;;;5043024;28;20042;-65
2022/04/28 00:12:25;;;;;;;17.88;7.90;;;2.60;90.40;;;;;;5046659;28;20056;-65
2022/04/28 00:14:50;;;;;;;17.67;7.45;;;2.60;90.90;;;;;;5037881;28;20032;-64
2022/04/28 00:17:16;;;;;;;16.95;7.15;;;2.50;90.90;;;;;;5036470;28;20172;-65
2022/04/28 00:19:41;;;;;;;16.90;7.00;;;2.60;90.60;;;;;;5037678;28;20097;-65
2022/04/28 00:22:07;;;;;;;13.88;7.22;;;2.60;90.40;;;;;;5043755;28;20048;-65
2022/04/28 00:24:32;;;;;;;11.90;6.13;;;2.60;90.40;;;;;;5052500;28;20419;-65
2022/04/28 00:26:58;;;;;;;16.42;8.02;;;2.60;90.40;;;;;;5033773;28;20041;-65
2022/04/28 00:29:24;;;;;;;16.30;7.07;;;2.60;90.80;;;;;;5031273;28;20053;-65
2022/04/28 00:31:49;;;;;;;13.10;6.43;;;2.60;90.60;;;;;;5036021;28;20030;-65
2022/04/28 00:34:15;;;;;;;15.60;7.20;;;2.60;90.60;;;;;;5034247;28;20045;-65
2022/04/28 00:36:41;;;;;;;15.10;7.45;;;2.60;90.70;;;;;;5041174;28;20048;-65
2022/04/28 00:39:06;;;;;;;11.30;6.55;;;2.60;90.80;;;;;;5043454;28;20047;-65
2022/04/28 00:41:32;;;;;;;16.63;7.07;;;2.50;91.00;;;;;;5044953;28;20815;-64
2022/04/28 00:43:57;;;;;;;15.68;6.93;;;2.50;90.40;;;;;;5041074;28;20048;-65
2022/04/28 00:46:23;;;;;;;16.08;7.38;;;2.40;90.60;;;;;;5033399;28;20492;-65
2022/04/28 00:51:37;;;;;;;16.27;6.63;;;2.50;90.90;;;;;;5032538;28;20044;-65
2022/04/28 00:54:04;;;;;;;14.57;6.57;;;2.40;90.80;;;;;;5041472;28;20448;-65
2022/04/28 00:56:30;;;;;;;14.50;6.60;;;2.40;90.70;;;;;;5032275;28;20041;-65
2022/04/28 00:58:58;;;;;;;15.18;7.13;;;2.40;90.60;;;;;;5041422;28;20041;-65
2022/04/28 01:01:24;;;;;;;16.42;7.40;;;2.40;90.90;;;;;;5032877;28;20055;-65
2022/04/28 01:03:50;;;;;;;13.88;6.78;;;2.30;91.00;;;;;;5033297;28;20037;-65
2022/04/28 01:06:16;;;;;;;13.35;7.40;;;2.30;91.00;;;;;;5038113;28;20045;-65
2022/04/28 01:08:41;;;;;;;13.48;7.38;;;2.30;91.00;;;;;;5042671;28;20048;-64
2022/04/28 01:11:07;;;;;;;14.20;7.60;;;2.30;91.00;;;;;;5032686;28;20056;-65
2022/04/28 01:13:33;;;;;;;13.68;6.95;;;2.30;91.10;;;;;;5040924;28;20478;-65
2022/04/28 01:16:00;;;;;;;14.27;6.95;;;2.30;91.20;;;;;;5039594;28;20567;-65
2022/04/28 01:18:25;;;;;;;17.25;7.72;;;2.20;91.60;;;;;;5037821;28;20068;-65
2022/04/28 01:20:51;;;;;;;16.23;6.90;;;2.20;91.30;;;;;;5034531;28;20596;-65
2022/04/28 01:23:18;;;;;;;18.67;7.88;;;2.20;91.30;;;;;;5036614;28;20469;-65
2022/04/28 01:25:44;;;;;;;12.38;6.70;;;2.30;92.00;;;;;;5039202;28;20086;-65
2022/04/28 01:28:09;;;;;;;14.20;6.95;;;2.30;91.50;;;;;;5032315;28;20041;-65
2022/04/28 01:30:37;;;;;;;15.10;7.82;;;2.40;91.30;;;;;;5036965;28;20481;-65
2022/04/28 01:33:04;;;;;;;14.20;6.80;;;2.40;91.00;;;;;;5039407;28;20048;-65
2022/04/28 01:35:30;;;;;;;12.00;6.95;;;2.30;91.50;;;;;;5037144;28;20669;-65
2022/04/28 01:37:55;;;;;;;13.02;7.43;;;2.50;91.20;;;;;;5046765;28;20489;-65
2022/04/28 01:40:21;;;;;;;15.82;6.90;;;2.60;91.10;;;;;;5043065;28;20036;-65
2022/04/28 01:42:47;;;;;;;17.17;7.28;;;2.70;91.20;;;;;;5029009;28;20041;-65
2022/04/28 01:45:14;;;;;;;15.88;8.27;;;2.80;91.50;;;;;;5031235;28;20041;-65
2022/04/28 01:47:40;;;;;;;16.92;8.27;;;3.00;90.90;;;;;;5036574;28;20048;-66
2022/04/28 01:50:08;;;;;;;15.45;7.88;;;3.10;90.80;;;;;;5029431;28;20047;-66
2022/04/28 01:55:18;;;;;;;15.77;7.45;;;3.20;91.30;;;;;;5036894;28;20041;-66
2022/04/28 01:57:44;;;;;;;18.02;7.75;;;3.30;91.50;;;;;;5046119;28;20363;-65
2022/04/28 02:00:10;;;;;;;17.45;7.43;;;3.40;91.20;;;;;;5044075;28;20029;-66
2022/04/28 02:02:36;;;;;;;16.73;7.00;;;3.50;90.70;;;;;;5053956;28;20053;-66
2022/04/28 02:05:06;;;;;;;14.40;7.35;;;3.50;90.90;;;;;;5054069;28;20385;-66
2022/04/28 02:07:32;;;;;;;;;;;3.60;90.50;;;;;;5040327;28;20432;-65
2022/04/28 02:09:58;;;;;;;18.45;7.45;;;3.70;92.00;;;;;;5045164;28;19995;-66
2022/04/28 02:12:25;;;;;;;12.57;7.25;;;3.60;91.10;;;;;;5037782;28;20033;-65
2022/04/28 02:14:51;;;;;;;14.20;6.93;;;3.80;90.70;;;;;;5033112;28;20940;-65
2022/04/28 02:17:25;;;;;;;20.40;7.57;;;3.90;90.90;;;;;;5036643;28;20037;-65
2022/04/28 02:19:51;;;;;;;12.55;7.15;;;4.00;90.60;;;;;;5041061;28;20489;-65
2022/04/28 02:22:18;;;;;;;15.50;7.22;;;4.10;90.30;;;;;;5040162;28;20408;-65
2022/04/28 02:24:44;;;;;;;12.10;6.18;;;4.10;90.20;;;;;;5043638;28;20037;-66
2022/04/28 02:27:10;;;;;;;17.00;7.68;;;4.20;90.30;;;;;;5041906;28;20041;-65
2022/04/28 02:29:36;;;;;;;14.27;7.20;;;4.30;90.30;;;;;;5022739;28;20055;-65
2022/04/28 02:32:02;;;;;;;18.45;7.35;;;4.30;90.20;;;;;;5044991;28;20036;-66
2022/04/28 02:34:28;;;;;;;15.75;7.00;;;4.40;90.30;;;;;;5043414;28;20060;-66
2022/04/28 02:36:54;;;;;;;15.05;7.65;;;4.50;90.20;;;;;;5035651;28;20037;-65
2022/04/28 02:39:19;;;;;;;12.20;6.93;;;4.50;90.20;;;;;;5045549;28;20036;-65
2022/04/28 02:41:46;;;;;;;16.85;7.50;;;4.50;90.50;;;;;;5042672;28;20473;-66
2022/04/28 02:44:12;;;;;;;12.43;6.65;;;4.60;90.10;;;;;;5042244;28;20080;-65
2022/04/28 02:46:45;;;;;;;16.75;6.97;;;4.60;90.10;;;;;;5047301;28;20064;-65
2022/04/28 02:49:12;;;;;;;13.70;7.35;;;4.60;90.20;;;;;;5033259;28;20531;-65
2022/04/28 02:51:38;;;;;;;19.88;7.57;;;4.60;90.20;;;;;;5044642;28;20803;-65
2022/04/28 02:54:04;;;;;;;14.77;6.65;;;4.70;90.30;;;;;;5052669;28;20083;-65
2022/04/28 02:56:30;;;;;;;11.13;6.55;;;4.70;90.30;;;;;;5045660;28;20475;-65
2022/04/28 02:58:55;;;;;;;15.85;6.90;;;4.80;90.30;;;;;;5047469;28;20143;-65
2022/04/28 03:01:22;;;;;;;19.05;6.75;;;4.80;90.40;;;;;;5043792;28;20047;-65
2022/04/28 03:03:47;;;;;;;16.48;7.00;;;4.90;90.20;;;;;;5036505;28;20405;-65
2022/04/28 03:11:41;;;;;;;13.27;6.55;;;5.00;90.20;;;;;;5044244;28;20059;-66
2022/04/28 03:14:08;;;;;;;16.85;6.60;;;5.10;90.10;;;;;;5039163;28;20618;-66
2022/04/28 03:16:35;;;;;;;13.27;7.10;;;5.10;90.50;;;;;;5032562;28;20417;-65
2022/04/28 03:19:01;;;;;;;15.45;6.88;;;5.10;90.10;;;;;;5038354;28;20179;-66
2022/04/28 03:21:27;;;;;;;11.48;6.43;;;5.20;90.10;;;;;;5042082;28;20120;-65
2022/04/28 03:23:53;;;;;;;14.05;6.60;;;5.20;90.10;;;;;;5038225;28;20037;-65
2022/04/28 03:26:18;;;;;;;12.43;6.05;;;5.20;90.20;;;;;;5044408;28;20493;-65
2022/04/28 03:28:44;;;;;;;14.07;7.18;;;5.30;90.30;;;;;;5037462;28;20029;-66
2022/04/28 03:31:09;;;;;;;14.20;6.97;;;5.30;90.50;;;;;;5044125;28;20048;-66
2022/04/28 03:33:35;;;;;;;10.00;5.93;;;5.40;90.20;;;;;;5050074;28;20711;-65
2022/04/28 03:36:01;;;;;;;16.02;6.93;;;5.30;90.40;;;;;;5049179;28;20120;-65
2022/04/28 03:38:26;;;;;;;17.40;6.28;;;5.30;90.60;;;;;;5038771;28;20227;-65
2022/04/28 03:40:52;;;;;;;13.15;7.13;;;5.40;90.20;;;;;;5038070;28;20041;-66
2022/04/28 03:43:18;;;;;;;13.85;6.43;;;5.50;90.30;;;;;;5042013;28;20044;-65
2022/04/28 03:45:43;;;;;;;8.18;6.00;;;5.50;90.20;;;;;;5041677;28;20044;-66
2022/04/28 03:48:09;;;;;;;17.40;6.20;;;5.50;90.00;;;;;;5041028;28;20124;-65
2022/04/28 03:50:37;;;;;;;10.25;5.47;;;5.50;90.00;;;;;;5036708;28;21002;-66
2022/04/28 03:53:03;;;;;;;15.40;6.35;;;5.50;90.30;;;;;;5042976;28;20052;-65
2022/04/28 03:55:29;;;;;;;10.00;6.05;;;5.60;90.10;;;;;;5038469;28;20060;-65
2022/04/28 03:57:54;;;;;;;10.68;5.47;;;5.60;90.00;;;;;;5058062;28;20045;-65
2022/04/28 04:00:21;;;;;;;13.55;6.00;;;5.60;90.00;;;;;;5033525;28;20619;-65
2022/04/28 04:02:47;;;;;;;13.02;6.20;;;5.60;90.00;;;;;;5043439;28;20043;-65
2022/04/28 04:05:13;;;;;;;10.60;5.53;;;5.60;90.40;;;;;;5042321;28;20041;-66
2022/04/28 04:07:40;;;;;;;10.57;5.90;;;5.60;90.30;;;;;;5045587;28;20041;-66
2022/04/28 04:10:07;;;;;;;9.07;5.88;;;5.60;90.40;;;;;;5047682;28;20381;-65
2022/04/28 04:12:32;;;;;;;13.07;6.63;;;5.60;90.50;;;;;;5040654;28;20099;-66
2022/04/28 04:14:58;;;;;;;15.75;6.68;;;5.60;90.80;;;;;;5042790;28;20045;-65
2022/04/28 04:17:24;;;;;;;13.88;5.88;;;5.60;90.80;;;;;;5032153;28;20069;-65
2022/04/28 04:19:49;;;;;;;9.55;5.90;;;5.70;90.50;;;;;;5046308;28;20041;-65
2022/04/28 04:22:15;;;;;;;12.18;6.43;;;5.70;90.30;;;;;;5049276;28;20040;-66
2022/04/28 04:24:41;;;;;;;10.30;5.30;;;5.70;90.30;;;;;;5047102;28;20116;-66
2022/04/28 04:27:08;;;;;;;7.88;5.47;;;5.70;90.40;;;;;;5032876;28;20128;-65
2022/04/28 04:29:33;;;;;;;9.65;5.28;;;5.70;90.30;;;;;;5045276;28;20378;-65
2022/04/28 04:32:17;;;;;;;12.30;5.72;;;5.70;90.30;;;;;;5033885;28;20033;-65
2022/04/28 04:34:46;;;;;;;10.73;5.57;;;5.70;90.30;;;;;;5047295;28;20068;-66
2022/04/28 04:37:12;;;;;;;9.88;5.50;;;5.70;90.30;;;;;;5049791;28;20040;-64
2022/04/28 04:39:40;;;;;;;11.45;6.00;;;5.70;90.40;;;;;;5037329;28;20048;-66
2022/04/28 04:42:07;;;;;;;10.75;5.63;;;5.60;90.50;;;;;;5033207;28;20741;-66
2022/04/28 04:44:32;;;;;;;10.25;5.38;;;5.70;90.50;;;;;;5034836;28;20508;-65
2022/04/28 04:46:58;;;;;;;10.30;5.82;;;5.70;90.70;;;;;;5038178;28;20037;-66
2022/04/28 04:49:24;;;;;;;11.40;5.95;;;5.70;90.70;;;;;;5038781;28;20099;-65
2022/04/28 04:51:49;;;;;;;14.05;5.80;;;5.80;90.70;;;;;;5040850;28;20037;-65
2022/04/28 04:54:15;;;;;;;13.60;6.57;;;5.80;90.70;;;;;;5049019;28;20053;-65
2022/04/28 04:56:40;;;;;;;11.38;5.85;;;5.80;90.70;;;;;;5044240;28;20053;-66
2022/04/28 04:59:06;;;;;;;8.77;5.20;;;5.80;90.60;;;;;;5035118;28;20038;-65
2022/04/28 05:01:32;;;;;;;10.55;5.78;;;5.90;90.70;;;;;;5040853;28;20072;-65
2022/04/28 05:03:57;;;;;;;10.07;5.47;;;6.00;90.60;;;;;;5044422;28;20037;-66
2022/04/28 05:06:23;;;;;;;11.02;6.15;;;6.00;90.70;;;;;;5036545;28;20500;-65
2022/04/28 05:08:48;;;;;;;15.38;6.65;;;6.00;90.70;;;;;;5034992;28;20540;-65
2022/04/28 05:11:14;;;;;;;14.93;6.25;;;6.10;90.70;;;;;;5043339;28;20152;-64
2022/04/28 05:13:39;;;;;;;13.93;6.45;;;6.20;90.70;;;;;;5056765;28;20087;-65
2022/04/28 05:16:05;;;;;;;14.20;6.18;;;6.20;90.80;;;;;;5049666;28;20056;-65
2022/04/28 05:18:31;;;;;;;11.90;6.05;;;6.20;90.60;;;;;;5043062;28;20040;-65
2022/04/28 05:20:58;;;;;;;14.52;6.25;;;6.30;90.70;;;;;;5039210;28;20049;-65
2022/04/28 05:23:23;;;;;;;12.75;6.30;;;6.30;91.00;;;;;;5045384;28;20049;-65
2022/04/28 05:25:49;;;;;;;11.23;5.75;;;6.40;90.70;;;;;;5035084;28;20423;-65
2022/04/28 05:28:15;;;;;;;9.48;5.70;;;6.40;90.70;;;;;;5039483;28;20672;-65
2022/04/28 05:30:40;;;;;;;11.05;5.47;;;6.40;90.70;;;;;;5040301;28;20037;-66
2022/04/28 05:33:06;;;;;;;10.32;5.47;;;6.50;90.70;;;;;;5046416;28;20041;-66
2022/04/28 05:35:35;;;;;;;10.32;5.70;;;6.50;90.80;;;;;;5047606;28;20033;-66
2022/04/28 05:38:01;;;;;;;12.07;5.20;;;6.50;90.90;;;;;;5048455;28;20056;-65
2022/04/28 05:40:26;;;;;;;12.88;5.25;;;6.60;90.90;;;;;;5038361;28;20615;-65
2022/04/28 05:45:42;;;;;;;10.70;5.22;;;6.70;90.80;;;;;;5033161;28;20057;-65
2022/04/28 05:48:10;;;;;;;11.68;5.65;;;6.70;90.70;;;;;;5042180;28;20124;-65
2022/04/28 05:50:38;;;;;;;8.48;4.93;;;6.80;90.80;;;;;;5033617;28;20161;-65
2022/04/28 05:53:03;;;;;;;14.20;6.00;;;6.80;90.80;;;;;;5033421;28;20069;-66
2022/04/28 05:55:29;;;;;;;9.52;5.60;;;6.90;90.70;;;;;;5034131;28;20076;-65
2022/04/28 05:57:58;;;;;;;11.35;6.45;;;7.00;90.60;;;;;;5040086;28;20124;-65
2022/04/28 06:00:25;;;;;;;12.60;5.70;;;7.10;90.50;;;;;;5045967;28;20041;-65
2022/04/28 06:02:50;;;;;;;11.10;5.55;;;7.20;90.40;;;;;;5031094;28;20037;-65
2022/04/28 06:05:16;;;;;;;12.13;6.10;;;7.20;90.20;;;;;;5040706;28;20052;-66
2022/04/28 06:07:41;;;;;;;12.10;5.40;;;7.30;90.10;;;;;;5035417;28;20765;-66
2022/04/28 06:10:07;;;;;;;11.07;5.97;;;7.30;90.10;;;;;;5036104;28;20084;-65
2022/04/28 06:12:33;;;;;;;9.80;5.60;;;7.40;90.00;;;;;;5035898;28;20033;-65
2022/04/28 06:14:58;;;;;;;15.05;5.60;;;7.40;89.90;;;;;;5030456;28;20033;-65
2022/04/28 06:17:24;;;;;;;11.85;6.22;;;7.50;89.60;;;;;;5048178;28;20041;-65
2022/04/28 06:19:49;;;;;;;10.98;5.53;;;7.60;89.30;;;;;;5049868;28;20362;-65
2022/04/28 06:22:15;;;;;;;9.20;4.75;;;7.70;88.90;;;;;;5050293;28;20704;-65
2022/04/28 06:24:41;;;;;;;10.65;6.15;;;7.80;88.60;;;;;;5040138;28;20044;-65
2022/04/28 06:27:06;;;;;;;15.05;5.45;;;7.90;88.20;;;;;;5038049;28;20048;-66
2022/04/28 06:29:32;;;;;;;12.15;6.07;;;8.00;87.90;;;;;;5053551;28;20041;-65
2022/04/28 06:31:58;;;;;;;12.35;5.65;;;8.20;87.40;;;;;;5045175;28;20041;-65
2022/04/28 06:34:23;;;;;;;9.40;5.30;;;8.40;87.00;;;;;;5050291;28;20047;-65
2022/04/28 06:36:49;;;;;;;12.23;6.20;;;8.50;86.40;;;;;;5037009;28;20443;-66
2022/04/28 06:39:14;;;;;;;12.80;5.57;;;8.70;85.90;;;;;;5033279;28;20060;-65
2022/04/28 06:41:40;;;;;;;16.15;6.00;;;8.80;85.30;;;;;;5044538;28;20449;-65
2022/04/28 06:44:05;;;;;;;11.95;5.75;;;9.00;84.70;;;;;;5051648;28;20068;-65
2022/04/28 06:46:31;;;;;;;12.77;6.32;;;9.10;84.10;;;;;;5034999;28;20033;-65
2022/04/28 06:48:57;;;;;;;10.43;5.72;;;9.30;83.50;;;;;;5057594;28;20029;-65
2022/04/28 06:51:23;;;;;;;11.65;6.10;;;9.50;83.10;;;;;;5055783;28;20041;-65
2022/04/28 06:53:49;;;;;;;13.13;6.03;;;9.60;82.70;;;;;;5045724;28;20500;-66
2022/04/28 06:56:14;;;;;;;12.52;5.97;;;9.80;82.40;;;;;;5052678;28;20128;-66
2022/04/28 06:58:40;;;;;;;10.07;5.38;;;9.90;82.20;;;;;;5043220;28;20039;-65
2022/04/28 07:01:05;;;;;;;14.60;6.57;;;10.00;81.90;;;;;;5046798;28;20052;-66
2022/04/28 07:03:31;;;;;;;15.18;6.13;;;10.20;81.30;;;;;;5036723;28;20041;-65
2022/04/28 07:05:57;;;;;;;10.40;4.90;;;10.40;81.00;;;;;;5037125;28;20478;-66
2022/04/28 07:08:23;;;;;;;11.13;5.53;;;10.60;80.50;;;;;;5053876;28;20068;-65
2022/04/28 07:10:49;;;;;;;12.05;5.50;;;10.80;80.30;;;;;;5050236;28;20132;-66
2022/04/28 07:13:15;;;;;;;9.23;5.03;;;10.80;79.90;;;;;;5045738;28;20083;-65
2022/04/28 07:15:41;;;;;;;11.15;5.03;;;10.90;79.70;;;;;;5044443;28;20055;-66
2022/04/28 07:18:06;;;;;;;9.05;4.10;;;10.90;78.90;;;;;;5041861;28;20029;-66
2022/04/28 07:20:33;;;;;;;13.73;4.40;;;10.90;78.40;;;;;;5037341;28;20102;-65
2022/04/28 07:22:59;;;;;;;10.40;4.50;;;10.80;78.10;;;;;;5034667;28;20045;-66
2022/04/28 07:25:26;;;;;;;8.15;4.10;;;10.80;77.30;;;;;;5047430;28;20057;-65
2022/04/28 07:27:52;;;;;;;8.82;3.90;;;10.70;77.00;;;;;;5033243;28;20041;-65
2022/04/28 07:30:18;;;;;;;9.63;4.07;;;10.70;76.70;;;;;;5044390;28;20087;-66
2022/04/28 07:32:44;;;;;;;6.13;3.50;;;10.60;76.40;;;;;;5045578;28;20037;-67
2022/04/28 07:35:09;;;;;;;11.38;4.10;;;10.50;76.20;;;;;;5040084;28;20060;-66
2022/04/28 07:37:35;;;;;;;12.38;3.42;;;10.40;76.10;;;;;;5035340;28;20041;-66
2022/04/28 07:40:00;;;;;;;10.35;3.63;;;10.60;76.10;;;;;;5032897;28;20041;-66
2022/04/28 07:42:26;;;;;;;6.80;3.03;;;11.10;76.20;;;;;;5048975;28;20052;-66
2022/04/28 07:44:51;;;;;;;8.65;2.67;;;11.20;76.00;;;;;;5031226;28;20044;-65
2022/04/28 07:47:17;;;;;;;8.98;3.10;;;11.20;75.80;;;;;;5034102;28;20155;-66
2022/04/28 07:49:42;;;;;;;8.57;3.20;;;11.20;74.90;;;;;;5012325;28;20071;-65
2022/04/28 07:52:08;;;;;;;7.93;2.92;;;11.10;74.60;;;;;;5047042;28;20088;-66
2022/04/28 07:54:34;;;;;;;9.10;2.92;;;11.70;74.40;;;;;;5034845;28;20087;-67
2022/04/28 07:56:59;;;;;;;9.52;3.22;;;12.40;74.00;;;;;;5031088;28;20052;-66
2022/04/28 07:59:25;;;;;;;9.85;2.80;;;13.30;73.70;;;;;;5036510;28;20064;-66
2022/04/28 08:01:51;;;;;;;6.22;2.40;;;14.20;72.00;;;;;;5033491;28;20045;-66
2022/04/28 08:04:16;;;;;;;10.25;2.33;;;14.70;70.30;;;;;;5044938;28;20045;-66
2022/04/28 08:06:42;;;;;;;6.32;2.08;;;15.10;69.50;;;;;;5052314;28;20086;-63
2022/04/28 08:09:08;;;;;;;7.53;2.20;;;14.90;68.10;;;;;;5042417;28;20481;-65
2022/04/28 08:11:33;;;;;;;5.25;2.00;;;14.70;66.10;;;;;;5030334;28;20049;-63
2022/04/28 08:13:59;;;;;;;5.40;2.20;;;14.70;65.40;;;;;;5036969;28;20067;-63
2022/04/28 08:16:24;;;;;;;9.85;2.63;;;14.40;65.00;;;;;;5030175;28;20091;-63
2022/04/28 08:18:50;;;;;;;11.20;2.38;;;14.20;64.30;;;;;;5034258;28;20041;-63
2022/04/28 08:21:15;;;;;;;5.60;1.52;;;14.10;64.00;;;;;;5043597;28;20044;-63
2022/04/28 08:23:41;;;;;;;4.57;1.52;;;14.00;63.90;;;;;;5026929;28;20048;-62
2022/04/28 08:26:06;;;;;;;5.97;1.75;;;13.70;63.10;;;;;;5030277;28;20041;-64
2022/04/28 08:28:32;;;;;;;6.57;2.25;;;13.70;63.10;;;;;;5042225;28;20041;-62
2022/04/28 08:30:58;;;;;;;6.95;2.20;;;13.90;62.70;;;;;;5040735;28;20033;-62
2022/04/28 08:33:23;;;;;;;6.32;1.70;;;14.60;61.90;;;;;;5034873;28;20037;-63
2022/04/28 08:35:49;;;;;;;4.88;1.60;;;14.70;61.20;;;;;;5031787;28;20377;-63
2022/04/28 08:38:14;;;;;;;5.40;1.38;;;14.70;60.60;;;;;;5033957;28;20490;-63
2022/04/28 08:40:44;;;;;;;3.83;1.50;;;14.70;59.80;;;;;;5039699;28;20044;-63
2022/04/28 08:43:13;;;;;;;3.42;1.67;;;14.60;59.10;;;;;;5039157;28;20171;-62
2022/04/28 08:46:50;;;;;;;6.60;2.20;;;14.70;59.00;;;;;;5031898;28;20215;-64
2022/04/28 08:48:29;;;;;;;3.47;1.65;;;14.70;59.50;;;;;;5034629;28;20098;-64
2022/04/28 08:50:56;;;;;;;6.93;1.83;;;14.50;59.00;;;;;;5045111;28;20041;-63
2022/04/28 08:53:21;;;;;;;6.68;1.92;;;14.70;59.00;;;;;;5046982;28;20565;-63
2022/04/28 08:55:47;;;;;;;4.25;1.63;;;15.50;57.70;;;;;;5034504;28;20049;-63
2022/04/28 08:58:13;;;;;;;4.40;1.75;;;16.00;56.60;;;;;;5026262;28;20669;-63
2022/04/28 09:00:38;;;;;;;7.82;2.20;;;15.70;56.20;;;;;;5029325;28;20044;-63
2022/04/28 09:03:04;;;;;;;7.35;2.53;;;15.80;56.20;;;;;;5033621;28;20488;-63
2022/04/28 09:05:32;;;;;;;4.95;1.70;;;16.30;55.30;;;;;;5043160;28;20045;-63
2022/04/28 09:07:58;;;;;;;4.68;1.67;;;17.10;53.40;;;;;;5033464;28;20040;-63
2022/04/28 09:10:29;;;;;;;4.90;1.65;;;18.40;52.70;;;;;;5047209;28;20041;-64
2022/04/28 09:12:56;;;;;;;5.43;1.60;;;18.40;51.30;;;;;;5047556;28;20048;-64
2022/04/28 09:15:22;;;;;;;5.32;2.03;;;17.90;50.90;;;;;;5036627;28;20049;-63
2022/04/28 09:17:48;;;;;;;9.13;2.30;;;17.50;51.70;;;;;;5017995;28;20511;-62
2022/04/28 09:20:14;;;;;;;5.18;1.95;;;17.30;52.00;;;;;;5040561;28;20037;-63
2022/04/28 09:22:43;;;;;;;6.88;1.85;;;16.80;52.50;;;;;;5029542;28;20045;-63
2022/04/28 09:25:10;;;;;;;5.88;2.42;;;16.80;52.40;;;;;;5045120;28;20114;-63
2022/04/28 09:27:36;;;;;;;7.20;2.10;;;16.70;52.90;;;;;;5041248;28;20056;-64
2022/04/28 09:30:02;;;;;;;8.25;2.63;;;17.00;52.60;;;;;;5030762;28;20037;-62
2022/04/28 09:32:27;;;;;;;5.82;2.47;;;16.80;52.50;;;;;;5043756;28;20091;-63
2022/04/28 09:34:53;;;;;;;9.10;2.30;;;16.60;52.70;;;;;;5030164;28;20040;-63
2022/04/28 09:37:26;;;;;;;5.95;2.38;;;16.30;52.80;;;;;;5049262;28;20071;-62
2022/04/28 09:42:41;;;;;;;6.47;2.33;;;15.90;53.20;;;;;;5028949;28;20080;-63
2022/04/28 09:45:09;;;;;;;7.47;2.85;;;15.90;53.60;;;;;;5030828;28;20096;-63
2022/04/28 09:47:36;;;;;;;10.02;2.50;;;15.80;53.30;;;;;;5028459;28;20466;-62
2022/04/28 09:50:15;;;;;;;7.70;2.40;;;15.50;54.10;;;;;;5040461;28;20040;-63
2022/04/28 09:52:43;;;;;;;5.07;2.20;;;15.40;52.40;;;;;;5034435;28;20405;-62
2022/04/28 09:55:10;;;;;;;11.43;3.05;;;15.40;53.90;;;;;;5041780;28;20053;-63
2022/04/28 09:57:36;;;;;;;7.57;2.33;;;15.40;53.90;;;;;;5032444;28;20156;-63
2022/04/28 10:00:03;;;;;;;8.13;2.63;;;15.20;53.90;;;;;;5052981;28;20172;-63
2022/04/28 10:02:29;;;;;;;4.95;2.45;;;15.20;54.00;;;;;;5055639;28;20116;-62
2022/04/28 10:04:55;;;;;;;5.57;2.70;;;15.30;54.10;;;;;;5036648;28;20183;-62
2022/04/28 10:07:22;;;;;;;4.93;2.17;;;15.40;53.90;;;;;;5038719;28;20487;-62
2022/04/28 10:09:51;;;;;;;6.22;2.00;;;15.70;53.20;;;;;;5057577;28;20041;-63
2022/04/28 10:12:21;;;;;;;8.18;2.38;;;15.80;52.90;;;;;;5056247;28;20116;-62
2022/04/28 10:14:48;;;;;;;6.47;2.35;;;15.60;52.30;;;;;;5051102;28;20037;-62
2022/04/28 10:17:19;;;;;;;8.95;2.67;;;15.50;52.70;;;;;;5050435;28;20037;-63
2022/04/28 10:19:51;;;;;;;10.45;3.55;;;15.30;53.10;;;;;;5043509;28;20044;-64
2022/04/28 10:22:21;;;;;;;4.63;2.80;;;15.20;53.80;;;;;;5050548;28;20381;-63
2022/04/28 10:33:08;;;;;;;12.48;3.45;;;15.60;54.00;;;;;;5044980;28;20060;-64
2022/04/28 10:35:47;;;;;;;8.23;3.70;;;15.40;54.40;;;;;;5055006;28;20556;-63
2022/04/28 10:38:35;;;;;;;8.40;3.70;;;15.40;54.10;;;;;;5055566;28;20500;-63
2022/04/28 10:41:05;;;;;;;8.63;3.40;;;15.30;54.10;;;;;;5052431;28;20053;-62
2022/04/28 10:43:34;;;;;;;;;;;15.10;54.30;;;;;;5043795;28;20052;-62
2022/04/28 10:46:08;;;;;;;9.27;3.05;;;15.20;53.60;;;;;;5047400;28;19920;-63
2022/04/28 10:48:38;;;;;;;6.15;3.28;;;15.40;54.20;;;;;;5036392;28;20045;-61
2022/04/28 10:51:25;;;;;;;8.03;3.47;;;15.50;54.00;;;;;;5045344;28;20495;-63
2022/04/28 10:54:05;;;;;;;12.30;3.78;;;15.60;53.20;;;;;;5032740;28;20536;-63
2022/04/28 10:56:40;;;;;;;10.52;3.65;;;15.50;52.80;;;;;;5050187;28;20051;-63
2022/04/28 10:59:37;;;;;;;7.55;2.90;;;15.60;53.60;;;;;;5047536;28;20029;-63
2022/04/28 11:02:11;;;;;;;9.57;3.60;;;15.80;53.30;;;;;;5053192;28;20381;-62
2022/04/28 11:04:39;;;;;;;8.05;3.50;;;15.90;52.90;;;;;;5051046;28;20049;-63
2022/04/28 11:07:15;;;;;;;7.43;4.20;;;16.00;52.60;;;;;;5050217;28;20488;-65
2022/04/28 11:09:43;;;;;;;5.47;3.42;;;16.30;51.70;;;;;;5040935;28;20475;-63
2022/04/28 11:12:11;;;;;;;8.65;3.67;;;16.30;52.00;;;;;;5032787;28;20042;-65
2022/04/28 11:14:48;;;;;;;10.38;3.40;;;16.30;51.80;;;;;;5041967;28;20044;-64
2022/04/28 11:17:16;;;;;;;6.43;3.10;;;16.30;50.60;;;;;;5049445;28;20115;-64
2022/04/28 11:19:43;;;;;;;10.23;3.40;;;16.40;51.30;;;;;;5053367;28;20390;-65
2022/04/28 11:22:11;;;;;;;11.50;3.75;;;16.30;51.20;;;;;;5050483;28;20076;-65
2022/04/28 11:24:41;;;;;;;11.18;3.72;;;16.20;51.70;;;;;;5045166;28;20055;-65
2022/04/28 11:27:07;;;;;;;9.57;4.05;;;16.20;51.90;;;;;;5045113;28;21767;-64
2022/04/28 11:29:36;;;;;;;10.32;4.32;;;16.20;51.60;;;;;;5041284;28;20486;-65
2022/04/28 11:32:02;;;;;;;7.38;3.40;;;16.30;51.50;;;;;;5041457;28;20089;-65
2022/04/28 11:34:32;;;;;;;9.13;3.53;;;16.30;51.60;;;;;;5050242;28;20040;-66
2022/04/28 11:37:15;;;;;;;10.67;3.20;;;16.20;51.70;;;;;;5045384;28;20048;-64
2022/04/28 11:39:46;;;;;;;11.45;3.83;;;16.10;51.70;;;;;;5031518;28;20033;-63
2022/04/28 11:42:13;;;;;;;6.03;2.53;;;15.90;52.20;;;;;;5043785;28;20051;-66
2022/04/28 11:45:06;;;;;;;8.57;2.70;;;16.10;52.50;;;;;;5051168;28;20043;-65
2022/04/28 11:47:41;;;;;;;10.35;3.45;;;16.20;52.10;;;;;;5043592;28;20064;-66
2022/04/28 11:50:07;;;;;;;8.82;3.05;;;16.20;52.30;;;;;;5040179;28;20045;-64
2022/04/28 11:52:34;;;;;;;10.32;2.92;;;16.10;52.50;;;;;;5035220;28;20037;-64
2022/04/28 11:55:07;;;;;;;8.40;3.15;;;16.00;52.60;;;;;;5030567;28;20135;-65
2022/04/28 11:57:39;;;;;;;11.95;3.50;;;16.10;52.30;;;;;;5031658;28;20045;-65
2022/04/28 12:00:10;;;;;;;9.50;3.03;;;16.20;52.30;;;;;;5042606;28;20038;-64
2022/04/28 12:02:36;;;;;;;10.38;3.03;;;16.10;52.70;;;;;;5032148;28;20037;-65
2022/04/28 12:05:15;;;;;;;8.73;3.58;;;16.10;53.00;;;;;;5050156;28;20037;-64
2022/04/28 12:07:43;;;;;;;7.75;3.28;;;16.00;53.10;;;;;;5031032;28;20611;-65
2022/04/28 12:15:56;;;;;;;7.65;3.20;;;15.70;53.30;;;;;;5039434;28;20045;-64
2022/04/28 12:21:18;;;;;;;9.88;3.35;;;15.90;53.30;;;;;;5041067;28;20593;-66
2022/04/28 12:23:48;;;;;;;9.43;3.50;;;16.10;53.00;;;;;;5049072;28;20473;-64
2022/04/28 12:26:13;;;;;;;8.63;3.43;;;16.10;53.30;;;;;;5043295;28;20359;-64
2022/04/28 12:28:42;;;;;;;14.00;3.88;;;16.20;53.20;;;;;;5030190;28;20041;-68
2022/04/28 12:31:12;;;;;;;8.68;3.47;;;16.30;53.20;;;;;;5048447;28;20041;-64
2022/04/28 12:33:39;;;;;;;9.65;3.38;;;16.50;52.70;;;;;;5047877;28;20079;-65
2022/04/28 12:36:13;;;;;;;11.18;3.75;;;16.40;52.60;;;;;;5037036;28;20040;-62
2022/04/28 12:38:45;;;;;;;11.70;3.33;;;16.40;52.60;;;;;;5045834;28;20032;-64
2022/04/28 12:41:16;;;;;;;9.27;3.97;;;16.40;52.50;;;;;;5037710;28;20037;-64
2022/04/28 12:43:48;;;;;;;6.47;3.00;;;16.90;51.50;;;;;;5044436;28;20037;-64
2022/04/28 12:46:32;;;;;;;9.45;3.60;;;17.10;51.00;;;;;;5050297;28;20086;-65
2022/04/28 12:49:01;;;;;;;6.93;3.17;;;17.20;50.90;;;;;;5044734;28;20033;-64
2022/04/28 12:51:27;;;;;;;9.70;3.28;;;17.40;50.60;;;;;;5043999;28;20045;-64
2022/04/28 12:54:06;;;;;;;7.95;3.33;;;17.80;49.60;;;;;;5041861;28;20402;-64
2022/04/28 12:56:33;;;;;;;9.18;3.33;;;17.80;49.30;;;;;;5034214;28;20545;-64
2022/04/28 12:59:04;;;;;;;6.35;3.58;;;18.50;48.60;;;;;;5035915;28;20044;-64
2022/04/28 13:01:30;;;;;;;7.13;3.17;;;19.20;46.90;;;;;;5038295;28;20041;-64
2022/04/28 13:03:58;;;;;;;12.80;3.67;;;18.90;47.40;;;;;;5042807;28;20140;-64
2022/04/28 13:06:26;;;;;;;10.88;3.83;;;19.20;46.40;;;;;;5034035;28;20044;-63
2022/04/28 13:08:52;;;;;;;8.95;3.10;;;18.60;46.50;;;;;;5037941;28;20041;-64
2022/04/28 13:11:29;;;;;;;8.02;3.63;;;18.40;47.10;;;;;;5049315;28;20052;-64
2022/04/28 13:13:56;;;;;;;12.63;3.65;;;18.40;46.70;;;;;;5038789;28;20392;-63
2022/04/28 13:16:22;;;;;;;7.93;3.65;;;18.20;47.20;;;;;;5051671;28;20474;-64
2022/04/28 13:18:48;;;;;;;8.60;3.63;;;18.00;47.20;;;;;;5052119;28;20071;-64